createdAt,value
2022-09-27T14:07:27.446Z,98661.55
2022-09-27T14:10:01.859Z,98669.19
2022-09-27T14:12:37.550Z,98666.30
2022-09-27T14:15:16.581Z,98664.11
2022-09-27T14:17:46.278Z,98661.59
2022-09-27T14:20:40.033Z,98664.40
2022-09-27T14:23:37.641Z,98660.55
2022-09-27T14:26:06.408Z,98657.14
2022-09-27T14:28:41.888Z,98653.44
2022-09-27T14:31:25.169Z,98651.20
2022-09-27T14:34:13.433Z,98647.67
2022-09-27T14:37:04.537Z,98648.29
2022-09-27T14:39:38.453Z,98651.39
2022-09-27T14:42:25.064Z,98648.35
2022-09-27T14:44:55.948Z,98647.24
2022-09-27T14:47:27.888Z,98647.98
2022-09-27T14:50:01.888Z,98646.06
2022-09-27T14:52:34.868Z,98643.66
2022-09-27T14:55:08.483Z,98648.21
2022-09-27T14:57:37.405Z,98646.69
2022-09-27T15:00:23.329Z,98645.27
2022-09-27T15:02:56.250Z,98637.45
2022-09-27T15:05:30.981Z,98640.66
2022-09-27T15:08:02.625Z,98639.58
2022-09-27T15:10:35.277Z,98633.41
2022-09-27T15:13:05.557Z,98632.08
2022-09-27T15:15:40.184Z,98635.45
2022-09-27T15:18:32.575Z,98636.40
2022-09-27T15:21:01.554Z,98632.10
2022-09-27T15:23:36.381Z,98630.95
2022-09-27T15:26:17.254Z,98634.48
2022-09-27T15:28:48.348Z,98636.66
2022-09-27T15:31:17.501Z,98629.35
2022-09-27T15:33:55.237Z,98623.15
2022-09-27T15:36:50.338Z,98623.29
2022-09-27T15:39:28.707Z,98625.85
2022-09-27T15:42:17.693Z,98625.27
2022-09-27T15:44:54.225Z,98630.55
2022-09-27T15:47:35.109Z,98626.04
2022-09-27T15:50:15.681Z,98629.42
2022-09-27T15:52:53.088Z,98631.04
2022-09-27T15:55:29.474Z,98631.44
2022-09-27T15:58:05.409Z,98630.38
2022-09-27T16:00:35.696Z,98625.94
2022-09-27T16:03:04.503Z,98622.35
2022-09-27T16:05:33.525Z,98621.45
2022-09-27T16:08:01.987Z,98621.11
2022-09-27T16:10:38.603Z,98623.48
2022-09-27T16:13:06.928Z,98623.20
2022-09-27T16:15:36.934Z,98629.10
2022-09-27T16:18:05.659Z,98630.15
2022-09-27T16:20:34.017Z,98629.44
2022-09-27T16:23:02.608Z,98627.38
2022-09-27T16:25:31.399Z,98629.09
2022-09-27T16:28:04.157Z,98631.55
2022-09-27T16:30:33.599Z,98632.02
2022-09-27T16:33:01.836Z,98630.41
2022-09-27T16:35:30.216Z,98634.66
2022-09-27T16:37:58.899Z,98637.07
2022-09-27T16:40:28.431Z,98638.56
2022-09-27T16:42:56.783Z,98640.38
2022-09-27T16:45:32.881Z,98639.07
2022-09-27T16:48:01.573Z,98640.94
2022-09-27T16:50:49.672Z,98639.95
2022-09-27T16:53:18.255Z,98637.95
2022-09-27T16:55:47.039Z,98633.93
2022-09-27T16:58:15.418Z,98635.52
2022-09-27T17:00:44.586Z,98633.48
2022-09-27T17:03:13.520Z,98634.38
2022-09-27T17:05:41.885Z,98631.27
2022-09-27T17:08:10.368Z,98632.84
2022-09-27T17:10:44.191Z,98632.49
2022-09-27T17:13:13.719Z,98634.92
2022-09-27T17:15:42.203Z,98637.03
2022-09-27T17:18:13.097Z,98635.60
2022-09-27T17:20:41.994Z,98628.92
2022-09-27T17:23:11.084Z,98630.45
2022-09-27T17:25:39.565Z,98633.80
2022-09-27T17:28:08.052Z,98631.63
2022-09-27T17:30:36.644Z,98631.12
2022-09-27T17:33:05.727Z,98632.95
2022-09-27T17:35:34.201Z,98629.81
2022-09-27T17:38:02.766Z,98630.43
2022-09-27T17:40:31.998Z,98623.70
2022-09-27T17:43:00.379Z,98629.81
2022-09-27T17:45:29.250Z,98625.01
2022-09-27T17:48:20.877Z,98617.73
2022-09-27T17:50:49.462Z,98617.66
2022-09-27T17:53:18.142Z,98622.09
2022-09-27T17:55:47.034Z,98621.00
2022-09-27T17:58:15.617Z,98622.06
2022-09-27T18:00:44.097Z,98623.45
2022-09-27T18:03:12.682Z,98623.55
2022-09-27T18:05:41.473Z,98620.89
2022-09-27T18:08:10.055Z,98622.10
2022-09-27T18:10:40.082Z,98623.33
2022-09-27T18:13:08.654Z,98619.35
2022-09-27T18:15:37.547Z,98622.28
2022-09-27T18:18:06.473Z,98623.23
2022-09-27T18:20:37.170Z,98624.59
2022-09-27T18:23:05.547Z,98624.95
2022-09-27T18:25:41.094Z,98627.44
2022-09-27T18:28:11.825Z,98627.04
2022-09-27T18:30:40.527Z,98629.95
2022-09-27T18:33:09.101Z,98626.61
2022-09-27T18:35:38.003Z,98623.27
2022-09-27T18:38:06.383Z,98630.52
2022-09-27T18:40:55.277Z,98628.25
2022-09-27T18:43:26.058Z,98628.57
2022-09-27T18:45:54.449Z,98629.14
2022-09-27T18:48:22.812Z,98630.30
2022-09-27T18:50:51.504Z,98628.08
2022-09-27T18:53:19.849Z,98630.79
2022-09-27T18:55:48.569Z,98630.36
2022-09-27T18:58:17.867Z,98627.77
2022-09-27T19:00:47.204Z,98630.07
2022-09-27T19:03:16.500Z,98631.25
2022-09-27T19:05:54.323Z,98631.66
2022-09-27T19:08:26.652Z,98631.09
2022-09-27T19:10:55.702Z,98634.17
2022-09-27T19:13:28.886Z,98632.65
2022-09-27T19:16:01.309Z,98631.63
2022-09-27T19:18:30.256Z,98631.51
2022-09-27T19:21:10.782Z,98627.83
2022-09-27T19:23:40.148Z,98625.31
2022-09-27T19:26:11.914Z,98624.13
2022-09-27T19:28:42.889Z,98626.23
2022-09-27T19:31:17.174Z,98622.13
2022-09-27T19:33:46.081Z,98623.42
2022-09-27T19:36:17.494Z,98623.96
2022-09-27T19:38:46.806Z,98621.75
2022-09-27T19:41:16.727Z,98620.67
2022-09-27T19:43:51.511Z,98619.98
2022-09-27T19:46:21.780Z,98619.94
2022-09-27T19:48:51.423Z,98618.34
2022-09-27T19:51:22.321Z,98618.44
2022-09-27T19:53:52.252Z,98622.56
2022-09-27T19:56:21.631Z,98622.13
2022-09-27T19:58:50.429Z,98625.11
2022-09-27T20:01:22.515Z,98625.95
2022-09-27T20:03:52.929Z,98626.23
2022-09-27T20:06:22.376Z,98618.95
2022-09-27T20:08:52.492Z,98616.04
2022-09-27T20:11:23.686Z,98615.89
2022-09-27T20:13:53.093Z,98613.89
2022-09-27T20:16:24.119Z,98612.42
2022-09-27T20:18:55.068Z,98611.52
